sensor_id;sensor_type;location;lat;lon;timestamp;P1;durP1;ratioP1;P2;durP2;ratioP2
55655;SDS011;41530;52.382;5.270;2022-12-18T00:01:04;13.18;;;7.28;;
55655;SDS011;41530;52.382;5.270;2022-12-18T00:03:32;10.70;;;6.38;;
55655;SDS011;41530;52.382;5.270;2022-12-18T00:06:00;11.48;;;6.78;;
55655;SDS011;41530;52.382;5.270;2022-12-18T00:08:26;12.82;;;7.18;;
55655;SDS011;41530;52.382;5.270;2022-12-18T00:10:53;12.65;;;6.70;;
55655;SDS011;41530;52.382;5.270;2022-12-18T00:13:25;10.02;;;6.63;;
55655;SDS011;41530;52.382;5.270;2022-12-18T00:15:53;11.35;;;6.60;;
55655;SDS011;41530;52.382;5.270;2022-12-18T00:18:21;12.23;;;6.85;;
55655;SDS011;41530;52.382;5.270;2022-12-18T00:20:48;11.38;;;6.60;;
55655;SDS011;41530;52.382;5.270;2022-12-18T00:23:15;12.30;;;6.63;;
55655;SDS011;41530;52.382;5.270;2022-12-18T00:25:41;12.57;;;6.65;;
55655;SDS011;41530;52.382;5.270;2022-12-18T00:28:08;12.40;;;7.10;;
55655;SDS011;41530;52.382;5.270;2022-12-18T00:30:35;10.57;;;6.35;;
55655;SDS011;41530;52.382;5.270;2022-12-18T00:33:02;11.90;;;6.78;;
55655;SDS011;41530;52.382;5.270;2022-12-18T00:35:28;12.30;;;6.85;;
55655;SDS011;41530;52.382;5.270;2022-12-18T00:37:55;9.60;;;6.18;;
55655;SDS011;41530;52.382;5.270;2022-12-18T00:40:22;15.32;;;7.13;;
55655;SDS011;41530;52.382;5.270;2022-12-18T00:42:49;10.50;;;6.68;;
55655;SDS011;41530;52.382;5.270;2022-12-18T00:45:23;10.13;;;6.13;;
55655;SDS011;41530;52.382;5.270;2022-12-18T00:47:50;11.55;;;6.35;;
55655;SDS011;41530;52.382;5.270;2022-12-18T00:50:18;12.38;;;6.55;;
55655;SDS011;41530;52.382;5.270;2022-12-18T00:52:45;10.43;;;6.82;;
55655;SDS011;41530;52.382;5.270;2022-12-18T00:55:11;9.35;;;6.13;;
55655;SDS011;41530;52.382;5.270;2022-12-18T00:57:39;9.95;;;6.15;;
55655;SDS011;41530;52.382;5.270;2022-12-18T01:00:07;12.73;;;5.90;;
55655;SDS011;41530;52.382;5.270;2022-12-18T01:02:36;10.95;;;6.68;;
55655;SDS011;41530;52.382;5.270;2022-12-18T01:05:03;10.45;;;5.95;;
55655;SDS011;41530;52.382;5.270;2022-12-18T01:07:31;9.13;;;5.88;;
55655;SDS011;41530;52.382;5.270;2022-12-18T01:09:58;10.10;;;6.15;;
55655;SDS011;41530;52.382;5.270;2022-12-18T01:12:24;11.27;;;6.93;;
55655;SDS011;41530;52.382;5.270;2022-12-18T01:14:51;9.07;;;5.90;;
55655;SDS011;41530;52.382;5.270;2022-12-18T01:17:18;11.45;;;5.95;;
55655;SDS011;41530;52.382;5.270;2022-12-18T01:19:45;8.75;;;5.82;;
55655;SDS011;41530;52.382;5.270;2022-12-18T01:22:11;9.13;;;5.78;;
55655;SDS011;41530;52.382;5.270;2022-12-18T01:24:38;11.23;;;6.43;;
55655;SDS011;41530;52.382;5.270;2022-12-18T01:27:05;10.80;;;6.35;;
55655;SDS011;41530;52.382;5.270;2022-12-18T01:29:31;7.80;;;5.20;;
55655;SDS011;41530;52.382;5.270;2022-12-18T01:31:58;10.43;;;6.70;;
55655;SDS011;41530;52.382;5.270;2022-12-18T01:34:25;9.48;;;5.88;;
55655;SDS011;41530;52.382;5.270;2022-12-18T01:36:52;12.15;;;6.07;;
55655;SDS011;41530;52.382;5.270;2022-12-18T01:39:19;23.70;;;6.35;;
55655;SDS011;41530;52.382;5.270;2022-12-18T01:41:45;11.95;;;6.22;;
55655;SDS011;41530;52.382;5.270;2022-12-18T01:47:52;9.25;;;5.63;;
55655;SDS011;41530;52.382;5.270;2022-12-18T01:52:58;9.10;;;5.85;;
55655;SDS011;41530;52.382;5.270;2022-12-18T01:55:29;8.68;;;5.53;;
55655;SDS011;41530;52.382;5.270;2022-12-18T01:57:59;10.23;;;6.15;;
55655;SDS011;41530;52.382;5.270;2022-12-18T02:00:27;8.32;;;5.57;;
55655;SDS011;41530;52.382;5.270;2022-12-18T02:02:54;10.77;;;6.10;;
55655;SDS011;41530;52.382;5.270;2022-12-18T02:05:34;8.88;;;5.80;;
55655;SDS011;41530;52.382;5.270;2022-12-18T02:08:20;9.80;;;6.05;;
55655;SDS011;41530;52.382;5.270;2022-12-18T02:10:51;10.48;;;5.65;;
55655;SDS011;41530;52.382;5.270;2022-12-18T02:13:36;8.07;;;5.28;;
55655;SDS011;41530;52.382;5.270;2022-12-18T02:22:14;8.75;;;5.63;;
55655;SDS011;41530;52.382;5.270;2022-12-18T02:28:02;9.82;;;6.00;;
55655;SDS011;41530;52.382;5.270;2022-12-18T02:30:33;9.80;;;6.32;;
55655;SDS011;41530;52.382;5.270;2022-12-18T02:33:04;9.60;;;6.28;;
55655;SDS011;41530;52.382;5.270;2022-12-18T02:35:35;9.13;;;6.10;;
55655;SDS011;41530;52.382;5.270;2022-12-18T02:38:04;9.90;;;6.30;;
55655;SDS011;41530;52.382;5.270;2022-12-18T02:40:32;10.02;;;6.05;;
55655;SDS011;41530;52.382;5.270;2022-12-18T02:43:03;8.98;;;6.18;;
55655;SDS011;41530;52.382;5.270;2022-12-18T02:45:33;11.23;;;6.72;;
55655;SDS011;41530;52.382;5.270;2022-12-18T02:48:00;10.68;;;6.43;;
55655;SDS011;41530;52.382;5.270;2022-12-18T02:50:34;9.15;;;6.05;;
55655;SDS011;41530;52.382;5.270;2022-12-18T02:53:12;9.32;;;5.90;;
55655;SDS011;41530;52.382;5.270;2022-12-18T02:56:05;10.73;;;6.30;;
55655;SDS011;41530;52.382;5.270;2022-12-18T03:01:19;10.25;;;6.32;;
55655;SDS011;41530;52.382;5.270;2022-12-18T03:03:55;9.68;;;6.30;;
55655;SDS011;41530;52.382;5.270;2022-12-18T03:06:41;10.02;;;5.95;;
55655;SDS011;41530;52.382;5.270;2022-12-18T03:09:16;9.60;;;5.82;;
55655;SDS011;41530;52.382;5.270;2022-12-18T03:11:49;10.20;;;6.15;;
55655;SDS011;41530;52.382;5.270;2022-12-18T03:14:40;9.02;;;5.78;;
55655;SDS011;41530;52.382;5.270;2022-12-18T03:17:10;8.82;;;5.53;;
55655;SDS011;41530;52.382;5.270;2022-12-18T03:19:41;8.05;;;5.50;;
55655;SDS011;41530;52.382;5.270;2022-12-18T03:22:12;9.45;;;5.97;;
55655;SDS011;41530;52.382;5.270;2022-12-18T03:24:39;8.45;;;5.78;;
55655;SDS011;41530;52.382;5.270;2022-12-18T03:27:08;10.00;;;5.85;;
55655;SDS011;41530;52.382;5.270;2022-12-18T03:29:42;11.68;;;6.38;;
55655;SDS011;41530;52.382;5.270;2022-12-18T03:32:19;9.73;;;6.05;;
55655;SDS011;41530;52.382;5.270;2022-12-18T03:34:59;8.82;;;5.65;;
55655;SDS011;41530;52.382;5.270;2022-12-18T03:37:30;9.43;;;5.60;;
55655;SDS011;41530;52.382;5.270;2022-12-18T03:39:57;10.40;;;6.75;;
55655;SDS011;41530;52.382;5.270;2022-12-18T03:42:28;12.90;;;6.40;;
55655;SDS011;41530;52.382;5.270;2022-12-18T03:45:11;11.10;;;6.37;;
55655;SDS011;41530;52.382;5.270;2022-12-18T03:53:31;12.60;;;6.68;;
55655;SDS011;41530;52.382;5.270;2022-12-18T03:56:00;10.13;;;6.38;;
55655;SDS011;41530;52.382;5.270;2022-12-18T03:58:28;10.85;;;6.68;;
55655;SDS011;41530;52.382;5.270;2022-12-18T04:00:58;9.35;;;5.55;;
55655;SDS011;41530;52.382;5.270;2022-12-18T04:03:28;11.90;;;6.90;;
55655;SDS011;41530;52.382;5.270;2022-12-18T04:05:58;10.93;;;6.75;;
55655;SDS011;41530;52.382;5.270;2022-12-18T04:08:27;10.48;;;6.63;;
55655;SDS011;41530;52.382;5.270;2022-12-18T04:10:55;10.48;;;6.43;;
55655;SDS011;41530;52.382;5.270;2022-12-18T04:13:27;11.40;;;6.45;;
55655;SDS011;41530;52.382;5.270;2022-12-18T04:15:56;10.02;;;6.20;;
55655;SDS011;41530;52.382;5.270;2022-12-18T04:18:23;12.00;;;7.10;;
55655;SDS011;41530;52.382;5.270;2022-12-18T04:20:50;10.27;;;6.60;;
55655;SDS011;41530;52.382;5.270;2022-12-18T04:23:17;9.57;;;6.07;;
55655;SDS011;41530;52.382;5.270;2022-12-18T04:25:44;10.95;;;6.45;;
55655;SDS011;41530;52.382;5.270;2022-12-18T04:28:12;9.82;;;6.30;;
55655;SDS011;41530;52.382;5.270;2022-12-18T04:30:39;9.93;;;6.47;;
55655;SDS011;41530;52.382;5.270;2022-12-18T04:33:11;10.73;;;6.65;;
55655;SDS011;41530;52.382;5.270;2022-12-18T04:35:38;9.98;;;6.65;;
55655;SDS011;41530;52.382;5.270;2022-12-18T04:38:07;9.55;;;6.38;;
55655;SDS011;41530;52.382;5.270;2022-12-18T04:40:34;10.85;;;6.88;;
55655;SDS011;41530;52.382;5.270;2022-12-18T04:43:02;9.75;;;6.68;;
55655;SDS011;41530;52.382;5.270;2022-12-18T04:45:30;9.73;;;6.22;;
55655;SDS011;41530;52.382;5.270;2022-12-18T04:47:58;11.60;;;7.25;;
55655;SDS011;41530;52.382;5.270;2022-12-18T04:50:25;9.40;;;6.28;;
55655;SDS011;41530;52.382;5.270;2022-12-18T04:52:54;9.65;;;6.22;;
55655;SDS011;41530;52.382;5.270;2022-12-18T04:55:21;10.57;;;6.35;;
55655;SDS011;41530;52.382;5.270;2022-12-18T04:57:48;10.15;;;6.38;;
55655;SDS011;41530;52.382;5.270;2022-12-18T05:00:15;12.35;;;7.03;;
55655;SDS011;41530;52.382;5.270;2022-12-18T05:02:42;10.35;;;6.50;;
55655;SDS011;41530;52.382;5.270;2022-12-18T05:05:09;10.25;;;6.43;;
55655;SDS011;41530;52.382;5.270;2022-12-18T05:07:37;11.75;;;6.68;;
55655;SDS011;41530;52.382;5.270;2022-12-18T05:10:04;9.88;;;6.55;;
55655;SDS011;41530;52.382;5.270;2022-12-18T05:12:31;9.80;;;6.75;;
55655;SDS011;41530;52.382;5.270;2022-12-18T05:14:58;10.73;;;6.68;;
55655;SDS011;41530;52.382;5.270;2022-12-18T05:17:25;9.20;;;6.22;;
55655;SDS011;41530;52.382;5.270;2022-12-18T05:19:52;11.13;;;6.40;;
55655;SDS011;41530;52.382;5.270;2022-12-18T05:22:19;10.50;;;6.40;;
55655;SDS011;41530;52.382;5.270;2022-12-18T05:24:46;14.98;;;6.82;;
55655;SDS011;41530;52.382;5.270;2022-12-18T05:27:13;10.88;;;6.75;;
55655;SDS011;41530;52.382;5.270;2022-12-18T05:29:40;9.85;;;6.60;;
55655;SDS011;41530;52.382;5.270;2022-12-18T05:32:07;11.70;;;7.40;;
55655;SDS011;41530;52.382;5.270;2022-12-18T05:34:34;9.85;;;6.05;;
55655;SDS011;41530;52.382;5.270;2022-12-18T05:37:00;10.35;;;6.68;;
55655;SDS011;41530;52.382;5.270;2022-12-18T05:39:27;8.85;;;5.78;;
55655;SDS011;41530;52.382;5.270;2022-12-18T05:41:53;9.25;;;5.78;;
55655;SDS011;41530;52.382;5.270;2022-12-18T05:44:20;9.20;;;6.35;;
55655;SDS011;41530;52.382;5.270;2022-12-18T05:46:47;11.85;;;6.60;;
55655;SDS011;41530;52.382;5.270;2022-12-18T05:49:14;10.57;;;6.47;;
55655;SDS011;41530;52.382;5.270;2022-12-18T05:51:41;10.63;;;5.97;;
55655;SDS011;41530;52.382;5.270;2022-12-18T05:54:07;9.02;;;6.00;;
55655;SDS011;41530;52.382;5.270;2022-12-18T05:56:34;10.25;;;6.18;;
55655;SDS011;41530;52.382;5.270;2022-12-18T05:59:00;9.55;;;5.88;;
55655;SDS011;41530;52.382;5.270;2022-12-18T06:01:28;9.10;;;5.97;;
55655;SDS011;41530;52.382;5.270;2022-12-18T06:03:56;8.65;;;5.53;;
55655;SDS011;41530;52.382;5.270;2022-12-18T06:06:24;9.57;;;6.28;;
55655;SDS011;41530;52.382;5.270;2022-12-18T06:08:52;9.35;;;5.22;;
55655;SDS011;41530;52.382;5.270;2022-12-18T06:11:24;9.40;;;5.68;;
55655;SDS011;41530;52.382;5.270;2022-12-18T06:13:53;11.30;;;6.20;;
55655;SDS011;41530;52.382;5.270;2022-12-18T06:16:24;8.98;;;5.45;;
55655;SDS011;41530;52.382;5.270;2022-12-18T06:18:51;9.98;;;6.13;;
55655;SDS011;41530;52.382;5.270;2022-12-18T06:21:18;9.45;;;5.60;;
55655;SDS011;41530;52.382;5.270;2022-12-18T06:23:44;9.10;;;5.60;;
55655;SDS011;41530;52.382;5.270;2022-12-18T06:26:12;8.82;;;5.68;;
55655;SDS011;41530;52.382;5.270;2022-12-18T06:28:39;8.60;;;5.50;;
55655;SDS011;41530;52.382;5.270;2022-12-18T06:31:07;8.90;;;5.38;;
55655;SDS011;41530;52.382;5.270;2022-12-18T06:33:34;7.47;;;4.95;;
55655;SDS011;41530;52.382;5.270;2022-12-18T06:38:40;8.63;;;5.10;;
55655;SDS011;41530;52.382;5.270;2022-12-18T06:41:19;8.90;;;5.75;;
55655;SDS011;41530;52.382;5.270;2022-12-18T06:43:47;8.73;;;5.38;;
55655;SDS011;41530;52.382;5.270;2022-12-18T06:46:14;8.25;;;4.80;;
55655;SDS011;41530;52.382;5.270;2022-12-18T06:48:40;8.68;;;5.57;;
55655;SDS011;41530;52.382;5.270;2022-12-18T06:51:07;8.68;;;5.45;;
55655;SDS011;41530;52.382;5.270;2022-12-18T06:53:34;7.95;;;5.30;;
55655;SDS011;41530;52.382;5.270;2022-12-18T06:56:05;9.30;;;5.57;;
55655;SDS011;41530;52.382;5.270;2022-12-18T06:58:36;8.97;;;5.40;;
55655;SDS011;41530;52.382;5.270;2022-12-18T07:01:05;7.85;;;5.00;;
55655;SDS011;41530;52.382;5.270;2022-12-18T07:03:33;7.50;;;5.05;;
55655;SDS011;41530;52.382;5.270;2022-12-18T07:06:00;7.95;;;5.05;;
55655;SDS011;41530;52.382;5.270;2022-12-18T07:08:29;7.20;;;5.10;;
55655;SDS011;41530;52.382;5.270;2022-12-18T07:10:56;7.28;;;5.05;;
55655;SDS011;41530;52.382;5.270;2022-12-18T07:13:23;8.85;;;5.78;;
55655;SDS011;41530;52.382;5.270;2022-12-18T07:15:50;9.50;;;5.72;;
55655;SDS011;41530;52.382;5.270;2022-12-18T07:18:16;9.82;;;5.60;;
55655;SDS011;41530;52.382;5.270;2022-12-18T07:20:43;7.53;;;5.00;;
55655;SDS011;41530;52.382;5.270;2022-12-18T07:23:11;9.10;;;5.45;;
55655;SDS011;41530;52.382;5.270;2022-12-18T07:25:37;7.28;;;4.93;;
55655;SDS011;41530;52.382;5.270;2022-12-18T07:28:04;7.22;;;4.50;;
55655;SDS011;41530;52.382;5.270;2022-12-18T07:30:31;8.57;;;5.03;;
55655;SDS011;41530;52.382;5.270;2022-12-18T07:32:58;7.38;;;5.28;;
55655;SDS011;41530;52.382;5.270;2022-12-18T07:35:24;6.80;;;4.93;;
55655;SDS011;41530;52.382;5.270;2022-12-18T07:37:51;8.02;;;4.45;;
55655;SDS011;41530;52.382;5.270;2022-12-18T07:40:17;7.43;;;5.15;;
55655;SDS011;41530;52.382;5.270;2022-12-18T07:42:44;9.48;;;5.25;;
55655;SDS011;41530;52.382;5.270;2022-12-18T07:45:11;6.22;;;4.45;;
55655;SDS011;41530;52.382;5.270;2022-12-18T07:47:37;8.15;;;4.93;;
55655;SDS011;41530;52.382;5.270;2022-12-18T07:50:04;7.10;;;4.72;;
55655;SDS011;41530;52.382;5.270;2022-12-18T07:52:31;5.20;;;4.22;;
55655;SDS011;41530;52.382;5.270;2022-12-18T07:54:58;6.75;;;4.68;;
55655;SDS011;41530;52.382;5.270;2022-12-18T07:57:25;8.75;;;5.10;;
55655;SDS011;41530;52.382;5.270;2022-12-18T08:00:11;9.95;;;4.80;;
55655;SDS011;41530;52.382;5.270;2022-12-18T08:02:39;18.88;;;5.20;;
55655;SDS011;41530;52.382;5.270;2022-12-18T08:05:07;7.68;;;5.13;;
55655;SDS011;41530;52.382;5.270;2022-12-18T08:07:34;8.38;;;4.65;;
55655;SDS011;41530;52.382;5.270;2022-12-18T08:10:01;8.48;;;5.57;;
55655;SDS011;41530;52.382;5.270;2022-12-18T08:12:28;8.25;;;5.57;;
55655;SDS011;41530;52.382;5.270;2022-12-18T08:14:55;8.77;;;5.43;;
55655;SDS011;41530;52.382;5.270;2022-12-18T08:17:23;10.52;;;5.25;;
55655;SDS011;41530;52.382;5.270;2022-12-18T08:19:50;12.52;;;5.28;;
55655;SDS011;41530;52.382;5.270;2022-12-18T08:22:16;8.80;;;5.05;;
55655;SDS011;41530;52.382;5.270;2022-12-18T08:24:43;17.05;;;4.70;;
55655;SDS011;41530;52.382;5.270;2022-12-18T08:27:11;9.75;;;4.68;;
55655;SDS011;41530;52.382;5.270;2022-12-18T08:29:55;9.52;;;4.70;;
55655;SDS011;41530;52.382;5.270;2022-12-18T08:32:22;7.68;;;4.65;;
55655;SDS011;41530;52.382;5.270;2022-12-18T08:34:48;15.20;;;5.00;;
55655;SDS011;41530;52.382;5.270;2022-12-18T08:37:15;9.50;;;4.88;;
55655;SDS011;41530;52.382;5.270;2022-12-18T08:39:42;7.85;;;4.90;;
55655;SDS011;41530;52.382;5.270;2022-12-18T08:42:09;11.95;;;5.05;;
55655;SDS011;41530;52.382;5.270;2022-12-18T08:44:55;8.50;;;4.50;;
55655;SDS011;41530;52.382;5.270;2022-12-18T08:47:21;7.47;;;4.07;;
55655;SDS011;41530;52.382;5.270;2022-12-18T08:49:48;7.20;;;4.35;;
55655;SDS011;41530;52.382;5.270;2022-12-18T08:52:14;8.70;;;4.20;;
55655;SDS011;41530;52.382;5.270;2022-12-18T08:54:41;11.25;;;4.07;;
55655;SDS011;41530;52.382;5.270;2022-12-18T08:57:07;5.93;;;3.63;;
55655;SDS011;41530;52.382;5.270;2022-12-18T08:59:34;8.40;;;4.10;;
55655;SDS011;41530;52.382;5.270;2022-12-18T09:02:00;6.53;;;4.38;;
55655;SDS011;41530;52.382;5.270;2022-12-18T09:04:27;6.47;;;3.92;;
55655;SDS011;41530;52.382;5.270;2022-12-18T09:06:54;6.78;;;3.97;;
55655;SDS011;41530;52.382;5.270;2022-12-18T09:09:20;7.32;;;3.67;;
55655;SDS011;41530;52.382;5.270;2022-12-18T09:11:47;7.75;;;3.75;;
55655;SDS011;41530;52.382;5.270;2022-12-18T09:14:13;7.30;;;3.70;;
55655;SDS011;41530;52.382;5.270;2022-12-18T09:16:40;7.03;;;3.67;;
55655;SDS011;41530;52.382;5.270;2022-12-18T09:19:07;6.88;;;3.90;;
55655;SDS011;41530;52.382;5.270;2022-12-18T09:21:34;6.85;;;3.97;;
55655;SDS011;41530;52.382;5.270;2022-12-18T09:24:02;6.32;;;3.30;;
55655;SDS011;41530;52.382;5.270;2022-12-18T09:26:34;6.95;;;3.70;;
55655;SDS011;41530;52.382;5.270;2022-12-18T09:29:00;6.82;;;3.40;;
55655;SDS011;41530;52.382;5.270;2022-12-18T09:31:28;6.47;;;3.67;;
55655;SDS011;41530;52.382;5.270;2022-12-18T09:33:55;6.10;;;3.63;;
55655;SDS011;41530;52.382;5.270;2022-12-18T09:36:22;7.55;;;3.78;;
55655;SDS011;41530;52.382;5.270;2022-12-18T09:38:49;5.95;;;3.60;;
55655;SDS011;41530;52.382;5.270;2022-12-18T09:43:50;5.85;;;3.75;;
55655;SDS011;41530;52.382;5.270;2022-12-18T09:46:28;6.45;;;3.97;;
55655;SDS011;41530;52.382;5.270;2022-12-18T09:49:00;5.50;;;3.75;;
55655;SDS011;41530;52.382;5.270;2022-12-18T09:51:32;6.03;;;3.60;;
55655;SDS011;41530;52.382;5.270;2022-12-18T09:54:04;7.10;;;3.38;;
55655;SDS011;41530;52.382;5.270;2022-12-18T09:56:38;5.25;;;3.30;;
55655;SDS011;41530;52.382;5.270;2022-12-18T09:59:13;5.57;;;3.60;;
55655;SDS011;41530;52.382;5.270;2022-12-18T10:01:46;8.73;;;3.38;;
55655;SDS011;41530;52.382;5.270;2022-12-18T10:04:13;5.80;;;3.22;;
55655;SDS011;41530;52.382;5.270;2022-12-18T10:07:01;4.78;;;3.30;;
55655;SDS011;41530;52.382;5.270;2022-12-18T10:09:43;5.28;;;3.53;;
55655;SDS011;41530;52.382;5.270;2022-12-18T10:12:21;5.30;;;3.30;;
55655;SDS011;41530;52.382;5.270;2022-12-18T10:14:59;4.97;;;3.30;;
55655;SDS011;41530;52.382;5.270;2022-12-18T10:17:45;5.40;;;3.13;;
55655;SDS011;41530;52.382;5.270;2022-12-18T10:20:24;4.80;;;2.83;;
55655;SDS011;41530;52.382;5.270;2022-12-18T10:23:10;5.55;;;3.35;;
55655;SDS011;41530;52.382;5.270;2022-12-18T10:26:05;4.38;;;3.00;;
55655;SDS011;41530;52.382;5.270;2022-12-18T10:28:35;7.00;;;3.50;;
55655;SDS011;41530;52.382;5.270;2022-12-18T10:31:05;5.93;;;3.15;;
55655;SDS011;41530;52.382;5.270;2022-12-18T10:33:43;4.78;;;3.13;;
55655;SDS011;41530;52.382;5.270;2022-12-18T10:36:10;4.65;;;3.00;;
55655;SDS011;41530;52.382;5.270;2022-12-18T10:38:37;5.10;;;3.30;;
55655;SDS011;41530;52.382;5.270;2022-12-18T10:41:06;6.78;;;3.58;;
55655;SDS011;41530;52.382;5.270;2022-12-18T10:46:37;4.75;;;2.85;;
55655;SDS011;41530;52.382;5.270;2022-12-18T10:49:04;5.47;;;3.22;;
55655;SDS011;41530;52.382;5.270;2022-12-18T10:51:33;4.50;;;3.17;;
55655;SDS011;41530;52.382;5.270;2022-12-18T10:54:04;5.75;;;3.17;;
55655;SDS011;41530;52.382;5.270;2022-12-18T10:56:33;5.78;;;2.92;;
55655;SDS011;41530;52.382;5.270;2022-12-18T10:59:06;4.95;;;3.03;;
55655;SDS011;41530;52.382;5.270;2022-12-18T11:01:47;3.10;;;2.60;;
55655;SDS011;41530;52.382;5.270;2022-12-18T11:04:18;4.38;;;2.72;;
55655;SDS011;41530;52.382;5.270;2022-12-18T11:06:53;5.18;;;2.75;;
55655;SDS011;41530;52.382;5.270;2022-12-18T11:09:22;5.57;;;2.88;;
55655;SDS011;41530;52.382;5.270;2022-12-18T11:11:51;4.22;;;2.90;;
55655;SDS011;41530;52.382;5.270;2022-12-18T11:14:30;3.15;;;2.40;;
55655;SDS011;41530;52.382;5.270;2022-12-18T11:17:00;4.38;;;2.85;;
55655;SDS011;41530;52.382;5.270;2022-12-18T11:19:52;4.22;;;2.45;;
55655;SDS011;41530;52.382;5.270;2022-12-18T11:22:30;4.35;;;3.00;;
55655;SDS011;41530;52.382;5.270;2022-12-18T11:25:04;3.00;;;2.58;;
55655;SDS011;41530;52.382;5.270;2022-12-18T11:27:57;4.18;;;2.55;;
55655;SDS011;41530;52.382;5.270;2022-12-18T11:30:28;4.28;;;2.50;;
55655;SDS011;41530;52.382;5.270;2022-12-18T11:33:05;3.03;;;2.30;;
55655;SDS011;41530;52.382;5.270;2022-12-18T11:38:17;5.45;;;3.33;;
55655;SDS011;41530;52.382;5.270;2022-12-18T11:40:51;4.25;;;2.80;;
55655;SDS011;41530;52.382;5.270;2022-12-18T11:43:28;4.47;;;2.67;;
55655;SDS011;41530;52.382;5.270;2022-12-18T11:49:09;3.65;;;2.78;;
55655;SDS011;41530;52.382;5.270;2022-12-18T11:51:51;3.60;;;2.67;;
55655;SDS011;41530;52.382;5.270;2022-12-18T11:54:25;4.15;;;2.60;;
55655;SDS011;41530;52.382;5.270;2022-12-18T11:59:55;2.58;;;2.15;;
55655;SDS011;41530;52.382;5.270;2022-12-18T12:08:10;4.30;;;2.40;;
55655;SDS011;41530;52.382;5.270;2022-12-18T12:16:04;3.38;;;2.40;;
55655;SDS011;41530;52.382;5.270;2022-12-18T12:18:40;3.40;;;2.53;;
55655;SDS011;41530;52.382;5.270;2022-12-18T12:30:00;4.55;;;2.35;;
55655;SDS011;41530;52.382;5.270;2022-12-18T12:32:40;3.30;;;2.50;;
55655;SDS011;41530;52.382;5.270;2022-12-18T12:38:44;3.22;;;2.17;;
55655;SDS011;41530;52.382;5.270;2022-12-18T12:41:18;2.97;;;2.28;;
55655;SDS011;41530;52.382;5.270;2022-12-18T12:44:13;3.40;;;2.35;;
55655;SDS011;41530;52.382;5.270;2022-12-18T12:46:44;3.35;;;2.72;;
55655;SDS011;41530;52.382;5.270;2022-12-18T12:49:14;2.78;;;2.03;;
55655;SDS011;41530;52.382;5.270;2022-12-18T12:51:45;3.40;;;2.20;;
55655;SDS011;41530;52.382;5.270;2022-12-18T12:54:17;2.80;;;2.17;;
55655;SDS011;41530;52.382;5.270;2022-12-18T13:02:22;2.80;;;1.85;;
55655;SDS011;41530;52.382;5.270;2022-12-18T13:07:44;4.65;;;2.20;;
55655;SDS011;41530;52.382;5.270;2022-12-18T13:10:41;3.85;;;2.35;;
55655;SDS011;41530;52.382;5.270;2022-12-18T13:13:12;2.40;;;1.90;;
55655;SDS011;41530;52.382;5.270;2022-12-18T13:15:50;2.55;;;1.92;;
55655;SDS011;41530;52.382;5.270;2022-12-18T13:18:33;2.50;;;1.90;;
55655;SDS011;41530;52.382;5.270;2022-12-18T13:23:30;3.10;;;2.33;;
55655;SDS011;41530;52.382;5.270;2022-12-18T13:28:49;4.18;;;2.50;;
55655;SDS011;41530;52.382;5.270;2022-12-18T13:36:52;3.38;;;2.20;;
55655;SDS011;41530;52.382;5.270;2022-12-18T13:44:34;3.30;;;2.08;;
55655;SDS011;41530;52.382;5.270;2022-12-18T13:50:00;4.45;;;2.20;;
55655;SDS011;41530;52.382;5.270;2022-12-18T13:52:36;2.97;;;2.10;;
55655;SDS011;41530;52.382;5.270;2022-12-18T13:55:07;2.22;;;1.90;;
55655;SDS011;41530;52.382;5.270;2022-12-18T13:57:42;3.10;;;2.28;;
55655;SDS011;41530;52.382;5.270;2022-12-18T14:00:28;3.08;;;2.20;;
55655;SDS011;41530;52.382;5.270;2022-12-18T14:02:56;2.15;;;1.90;;
55655;SDS011;41530;52.382;5.270;2022-12-18T14:05:26;5.05;;;2.72;;
55655;SDS011;41530;52.382;5.270;2022-12-18T14:08:01;4.30;;;2.47;;
55655;SDS011;41530;52.382;5.270;2022-12-18T14:10:32;3.08;;;2.10;;
55655;SDS011;41530;52.382;5.270;2022-12-18T14:13:24;2.70;;;1.90;;
55655;SDS011;41530;52.382;5.270;2022-12-18T14:15:56;5.32;;;2.58;;
55655;SDS011;41530;52.382;5.270;2022-12-18T14:18:32;2.85;;;2.20;;
55655;SDS011;41530;52.382;5.270;2022-12-18T14:21:14;3.33;;;2.28;;
55655;SDS011;41530;52.382;5.270;2022-12-18T14:23:44;4.55;;;2.40;;
55655;SDS011;41530;52.382;5.270;2022-12-18T14:26:22;3.13;;;2.33;;
55655;SDS011;41530;52.382;5.270;2022-12-18T14:28:51;2.78;;;2.20;;
55655;SDS011;41530;52.382;5.270;2022-12-18T14:31:20;3.03;;;2.28;;
55655;SDS011;41530;52.382;5.270;2022-12-18T14:33:48;5.95;;;2.25;;
55655;SDS011;41530;52.382;5.270;2022-12-18T14:36:17;3.78;;;2.20;;
55655;SDS011;41530;52.382;5.270;2022-12-18T14:38:52;3.63;;;2.40;;
55655;SDS011;41530;52.382;5.270;2022-12-18T14:41:23;3.65;;;2.75;;
55655;SDS011;41530;52.382;5.270;2022-12-18T14:43:52;3.17;;;2.38;;
55655;SDS011;41530;52.382;5.270;2022-12-18T14:49:00;2.67;;;2.28;;
55655;SDS011;41530;52.382;5.270;2022-12-18T14:51:30;3.83;;;2.50;;
55655;SDS011;41530;52.382;5.270;2022-12-18T14:54:00;3.78;;;2.60;;
55655;SDS011;41530;52.382;5.270;2022-12-18T14:56:33;4.47;;;2.25;;
55655;SDS011;41530;52.382;5.270;2022-12-18T15:01:37;6.78;;;2.97;;
55655;SDS011;41530;52.382;5.270;2022-12-18T15:04:19;3.50;;;2.58;;
55655;SDS011;41530;52.382;5.270;2022-12-18T15:07:03;3.78;;;2.42;;
55655;SDS011;41530;52.382;5.270;2022-12-18T15:09:36;4.32;;;2.70;;
55655;SDS011;41530;52.382;5.270;2022-12-18T15:12:04;3.95;;;2.30;;
55655;SDS011;41530;52.382;5.270;2022-12-18T15:14:41;3.47;;;2.63;;
55655;SDS011;41530;52.382;5.270;2022-12-18T15:17:18;4.55;;;2.95;;
55655;SDS011;41530;52.382;5.270;2022-12-18T15:19:49;3.58;;;2.70;;
55655;SDS011;41530;52.382;5.270;2022-12-18T15:22:22;5.10;;;2.97;;
55655;SDS011;41530;52.382;5.270;2022-12-18T15:24:54;4.35;;;3.00;;
55655;SDS011;41530;52.382;5.270;2022-12-18T15:27:31;3.92;;;2.80;;
55655;SDS011;41530;52.382;5.270;2022-12-18T15:32:34;3.22;;;2.60;;
55655;SDS011;41530;52.382;5.270;2022-12-18T15:37:35;3.88;;;2.83;;
55655;SDS011;41530;52.382;5.270;2022-12-18T15:40:02;5.10;;;3.42;;
55655;SDS011;41530;52.382;5.270;2022-12-18T15:42:29;6.72;;;3.20;;
55655;SDS011;41530;52.382;5.270;2022-12-18T15:47:43;7.20;;;3.30;;
55655;SDS011;41530;52.382;5.270;2022-12-18T15:50:10;10.63;;;3.53;;
55655;SDS011;41530;52.382;5.270;2022-12-18T15:52:44;10.45;;;3.38;;
55655;SDS011;41530;52.382;5.270;2022-12-18T15:55:19;4.82;;;3.08;;
55655;SDS011;41530;52.382;5.270;2022-12-18T15:58:07;10.38;;;3.47;;
55655;SDS011;41530;52.382;5.270;2022-12-18T16:00:36;10.20;;;3.72;;
55655;SDS011;41530;52.382;5.270;2022-12-18T16:03:05;8.63;;;3.78;;
55655;SDS011;41530;52.382;5.270;2022-12-18T16:05:32;7.60;;;3.45;;
55655;SDS011;41530;52.382;5.270;2022-12-18T16:07:59;6.68;;;3.60;;
55655;SDS011;41530;52.382;5.270;2022-12-18T16:10:26;6.40;;;3.80;;
55655;SDS011;41530;52.382;5.270;2022-12-18T16:12:53;7.38;;;3.42;;
55655;SDS011;41530;52.382;5.270;2022-12-18T16:15:20;6.88;;;3.30;;
55655;SDS011;41530;52.382;5.270;2022-12-18T16:17:50;7.80;;;3.80;;
55655;SDS011;41530;52.382;5.270;2022-12-18T16:20:21;6.38;;;2.97;;
55655;SDS011;41530;52.382;5.270;2022-12-18T16:22:48;6.65;;;3.40;;
55655;SDS011;41530;52.382;5.270;2022-12-18T16:27:44;5.82;;;3.28;;
55655;SDS011;41530;52.382;5.270;2022-12-18T16:30:14;8.07;;;3.58;;
55655;SDS011;41530;52.382;5.270;2022-12-18T16:32:47;5.63;;;3.33;;
55655;SDS011;41530;52.382;5.270;2022-12-18T16:35:14;6.70;;;3.05;;
55655;SDS011;41530;52.382;5.270;2022-12-18T16:37:42;6.75;;;3.47;;
55655;SDS011;41530;52.382;5.270;2022-12-18T16:40:10;4.10;;;3.10;;
55655;SDS011;41530;52.382;5.270;2022-12-18T16:42:39;7.80;;;3.55;;
55655;SDS011;41530;52.382;5.270;2022-12-18T16:45:08;6.68;;;3.30;;
55655;SDS011;41530;52.382;5.270;2022-12-18T16:47:37;5.22;;;3.22;;
55655;SDS011;41530;52.382;5.270;2022-12-18T16:50:04;8.10;;;3.53;;